createdAt,value
2023-05-04T00:00:25.038Z,58.78
2023-05-04T00:02:52.888Z,58.72
2023-05-04T00:05:21.038Z,58.38
2023-05-04T00:07:50.197Z,58.79
2023-05-04T00:10:18.121Z,59.04
2023-05-04T00:12:46.252Z,59.11
2023-05-04T00:15:14.161Z,58.84
2023-05-04T00:17:41.940Z,58.77
2023-05-04T00:20:10.560Z,58.51
2023-05-04T00:22:38.320Z,58.83
2023-05-04T00:25:08.884Z,59.25
2023-05-04T00:27:36.682Z,58.90
2023-05-04T00:30:05.092Z,58.90
2023-05-04T00:32:33.111Z,59.13
2023-05-04T00:35:01.362Z,59.57
2023-05-04T00:37:29.150Z,59.47
2023-05-04T00:39:56.916Z,59.56
2023-05-04T00:42:26.229Z,59.49
2023-05-04T00:44:55.355Z,59.55
2023-05-04T00:47:23.828Z,59.33
2023-05-04T00:49:52.951Z,59.58
2023-05-04T00:52:22.271Z,59.71
2023-05-04T00:54:50.464Z,59.69
2023-05-04T00:57:19.014Z,59.89
2023-05-04T00:59:48.643Z,60.01
2023-05-04T01:02:16.854Z,59.93
2023-05-04T01:04:45.221Z,60.06
2023-05-04T01:07:19.871Z,60.13
2023-05-04T01:09:53.115Z,60.12
2023-05-04T01:12:27.190Z,60.17
2023-05-04T01:14:57.670Z,60.33
2023-05-04T01:17:25.626Z,60.23
2023-05-04T01:19:54.055Z,61.03
2023-05-04T01:22:23.979Z,60.68
2023-05-04T01:24:51.850Z,60.58
2023-05-04T01:27:25.895Z,60.82
2023-05-04T01:29:59.615Z,60.56
2023-05-04T01:32:29.352Z,60.97
2023-05-04T01:35:00.264Z,60.87
2023-05-04T01:37:29.579Z,60.62
2023-05-04T01:39:57.941Z,60.89
2023-05-04T01:42:25.710Z,60.67
2023-05-04T01:44:53.516Z,61.31
2023-05-04T01:47:21.303Z,60.95
2023-05-04T01:49:50.399Z,61.23
2023-05-04T01:52:18.195Z,61.07
2023-05-04T01:54:47.363Z,61.35
2023-05-04T01:57:15.131Z,61.14
2023-05-04T01:59:43.136Z,61.55
2023-05-04T02:02:11.424Z,61.58
2023-05-04T02:04:39.481Z,61.39
2023-05-04T02:07:07.348Z,61.30
2023-05-04T02:09:35.336Z,61.19
2023-05-04T02:12:04.768Z,61.47
2023-05-04T02:14:32.605Z,61.65
2023-05-04T02:17:00.410Z,61.41
2023-05-04T02:19:28.272Z,61.59
2023-05-04T02:21:56.204Z,61.65
2023-05-04T02:24:24.052Z,61.70
2023-05-04T02:26:51.904Z,61.60
2023-05-04T02:29:21.003Z,62.16
2023-05-04T02:31:48.864Z,62.28
2023-05-04T02:34:16.700Z,62.34
2023-05-04T02:36:48.093Z,62.39
2023-05-04T02:39:16.225Z,62.00
2023-05-04T02:41:44.026Z,62.42
2023-05-04T02:44:11.798Z,62.30
2023-05-04T02:46:40.965Z,62.19
2023-05-04T02:49:09.093Z,62.82
2023-05-04T02:51:36.887Z,62.52
2023-05-04T02:54:04.871Z,62.88
2023-05-04T02:56:32.707Z,62.89
2023-05-04T02:59:00.683Z,62.40
2023-05-04T03:01:28.646Z,62.42
2023-05-04T03:03:57.935Z,62.66
2023-05-04T03:06:25.866Z,63.02
2023-05-04T03:08:53.979Z,62.96
2023-05-04T03:11:21.805Z,63.49
2023-05-04T03:13:49.606Z,63.05
2023-05-04T03:16:18.580Z,63.08
2023-05-04T03:21:33.467Z,63.00
2023-05-04T03:24:01.323Z,63.55
2023-05-04T03:26:29.204Z,63.04
2023-05-04T03:28:56.980Z,63.46
2023-05-04T03:31:24.877Z,63.28
2023-05-04T03:33:54.212Z,63.35
2023-05-04T03:36:22.733Z,64.05
2023-05-04T03:38:52.712Z,63.39
2023-05-04T03:41:21.611Z,63.97
2023-05-04T03:43:49.442Z,64.01
2023-05-04T03:46:17.503Z,63.96
2023-05-04T03:48:47.048Z,64.28
2023-05-04T03:51:17.905Z,63.41
2023-05-04T03:53:45.688Z,64.07
2023-05-04T03:56:18.028Z,63.61
2023-05-04T03:58:46.565Z,64.35
2023-05-04T04:01:16.678Z,63.94
2023-05-04T04:03:44.898Z,64.62
2023-05-04T04:06:13.350Z,63.67
2023-05-04T04:08:41.156Z,64.19
2023-05-04T04:11:10.034Z,63.71
2023-05-04T04:13:39.139Z,64.45
2023-05-04T04:16:07.084Z,64.29
2023-05-04T04:18:34.849Z,64.96
2023-05-04T04:21:03.462Z,64.73
2023-05-04T04:23:31.312Z,64.34
2023-05-04T04:25:59.101Z,64.35
2023-05-04T04:28:26.919Z,64.31
2023-05-04T04:30:56.144Z,64.25
2023-05-04T04:33:23.980Z,64.33
2023-05-04T04:35:52.374Z,64.63
2023-05-04T04:38:20.466Z,64.56
2023-05-04T04:40:48.237Z,65.29
2023-05-04T04:43:16.210Z,65.06
2023-05-04T04:45:45.225Z,65.42
2023-05-04T04:48:14.491Z,65.41
2023-05-04T04:50:42.280Z,64.99
2023-05-04T04:53:10.924Z,65.09
2023-05-04T04:55:39.523Z,65.53
2023-05-04T04:58:08.771Z,65.39
2023-05-04T05:00:36.819Z,65.18
2023-05-04T05:03:05.492Z,65.34
2023-05-04T05:05:34.697Z,65.47
2023-05-04T05:08:02.482Z,65.99
2023-05-04T05:10:30.752Z,65.33
2023-05-04T05:12:58.588Z,65.72
2023-05-04T05:15:26.470Z,65.91
2023-05-04T05:17:54.391Z,65.58
2023-05-04T05:20:23.541Z,65.90
2023-05-04T05:22:52.793Z,65.80
2023-05-04T05:25:20.761Z,66.27
2023-05-04T05:27:48.522Z,65.91
2023-05-04T05:30:16.720Z,65.92
2023-05-04T05:32:45.518Z,66.60
2023-05-04T05:35:14.586Z,66.32
2023-05-04T05:37:42.416Z,66.51
2023-05-04T05:40:12.360Z,66.48
2023-05-04T05:42:40.160Z,66.61
2023-05-04T05:45:09.317Z,66.82
2023-05-04T05:47:37.779Z,67.02
2023-05-04T05:50:06.218Z,66.98
2023-05-04T05:52:34.205Z,66.95
2023-05-04T05:55:02.784Z,66.89
2023-05-04T05:57:32.315Z,66.88
2023-05-04T06:00:00.174Z,67.10
2023-05-04T06:02:28.037Z,67.29
2023-05-04T06:04:55.978Z,66.91
2023-05-04T06:07:23.884Z,67.16
2023-05-04T06:09:51.664Z,67.39
2023-05-04T06:12:19.448Z,67.12
2023-05-04T06:14:48.878Z,67.32
2023-05-04T06:17:17.454Z,67.42
2023-05-04T06:19:45.957Z,67.33
2023-05-04T06:22:14.402Z,67.24
2023-05-04T06:24:42.235Z,67.80
2023-05-04T06:27:10.094Z,67.94
2023-05-04T06:29:40.137Z,67.81
2023-05-04T06:32:09.769Z,68.10
2023-05-04T06:34:37.697Z,67.93
2023-05-04T06:37:05.526Z,67.86
2023-05-04T06:39:33.315Z,68.27
2023-05-04T06:42:01.623Z,67.86
2023-05-04T06:44:38.333Z,67.91
2023-05-04T06:47:07.432Z,68.40
2023-05-04T06:49:36.650Z,67.97
2023-05-04T06:52:04.482Z,69.03
2023-05-04T06:54:32.771Z,68.36
2023-05-04T06:57:00.592Z,68.36
2023-05-04T06:59:28.372Z,68.89
2023-05-04T07:01:56.310Z,68.82
2023-05-04T07:04:24.278Z,68.24
2023-05-04T07:06:53.820Z,68.97
2023-05-04T07:09:22.215Z,68.37
2023-05-04T07:11:50.031Z,68.45
2023-05-04T07:14:17.820Z,68.52
2023-05-04T07:16:45.700Z,68.92
2023-05-04T07:19:14.391Z,68.86
2023-05-04T07:21:42.748Z,68.92
2023-05-04T07:24:11.994Z,68.90
2023-05-04T07:26:39.885Z,68.78
2023-05-04T07:29:07.744Z,69.17
2023-05-04T07:31:36.141Z,69.05
2023-05-04T07:34:04.042Z,68.92
2023-05-04T07:36:31.836Z,68.93
2023-05-04T07:38:59.611Z,68.65
2023-05-04T07:41:29.141Z,68.95
2023-05-04T07:43:57.083Z,69.05
2023-05-04T07:46:24.892Z,68.93
2023-05-04T07:48:52.992Z,68.93
2023-05-04T07:51:20.824Z,68.93
2023-05-04T07:53:48.656Z,69.13
2023-05-04T07:56:16.653Z,68.82
2023-05-04T07:58:45.959Z,68.82
2023-05-04T08:01:13.724Z,69.22
2023-05-04T08:03:41.547Z,69.07
2023-05-04T08:06:09.683Z,69.13
2023-05-04T08:08:37.824Z,68.99
2023-05-04T08:11:19.469Z,69.38
2023-05-04T08:13:50.637Z,68.68
2023-05-04T08:16:18.749Z,68.99
2023-05-04T08:18:46.526Z,69.39
2023-05-04T08:21:14.631Z,68.96
2023-05-04T08:23:42.589Z,68.83
2023-05-04T08:26:10.686Z,68.71
2023-05-04T08:28:40.144Z,68.76
2023-05-04T08:31:09.495Z,68.87
2023-05-04T08:33:37.467Z,68.99
2023-05-04T08:36:06.310Z,68.99
2023-05-04T08:38:34.454Z,68.82
2023-05-04T08:41:04.154Z,69.04
2023-05-04T08:43:32.094Z,69.00
2023-05-04T08:45:59.941Z,68.86
2023-05-04T08:48:29.151Z,68.62
2023-05-04T08:50:58.722Z,68.88
2023-05-04T08:53:27.774Z,68.74
2023-05-04T08:55:57.071Z,68.61
2023-05-04T08:58:26.064Z,68.47
2023-05-04T09:00:54.849Z,68.76
2023-05-04T09:03:22.974Z,68.45
2023-05-04T09:05:52.966Z,68.48
2023-05-04T09:08:21.509Z,68.45
2023-05-04T09:10:49.343Z,68.58
2023-05-04T09:13:17.199Z,68.38
2023-05-04T09:15:55.074Z,68.41
2023-05-04T09:18:23.063Z,68.17
2023-05-04T09:20:52.338Z,68.13
2023-05-04T09:23:22.299Z,68.45
2023-05-04T09:25:51.846Z,68.03
2023-05-04T09:28:21.551Z,67.95
2023-05-04T09:30:49.920Z,67.79
2023-05-04T09:33:17.903Z,68.01
2023-05-04T09:35:45.782Z,67.95
2023-05-04T09:38:26.674Z,67.75
2023-05-04T09:40:55.027Z,67.67
2023-05-04T09:43:23.117Z,67.70
2023-05-04T09:45:51.410Z,67.50
2023-05-04T09:48:21.079Z,67.45
2023-05-04T09:50:50.631Z,67.78
2023-05-04T09:53:23.139Z,67.47
2023-05-04T09:55:55.804Z,67.33
2023-05-04T09:58:24.657Z,67.30
2023-05-04T10:00:53.683Z,67.45
2023-05-04T10:03:22.377Z,67.11
2023-05-04T10:05:50.831Z,66.88
2023-05-04T10:08:20.883Z,66.76
2023-05-04T10:10:50.016Z,66.78
2023-05-04T10:13:18.086Z,66.59
2023-05-04T10:15:55.863Z,66.69
2023-05-04T10:18:32.275Z,66.73
2023-05-04T10:21:24.965Z,66.65
2023-05-04T10:24:18.377Z,66.47
2023-05-04T10:27:03.403Z,66.40
2023-05-04T10:29:33.432Z,66.45
2023-05-04T10:32:02.006Z,66.20
2023-05-04T10:34:31.554Z,66.18
2023-05-04T10:37:01.233Z,65.94
2023-05-04T10:39:32.682Z,66.08
2023-05-04T10:42:02.528Z,65.98
2023-05-04T10:44:31.520Z,65.75
2023-05-04T10:47:01.693Z,65.52
2023-05-04T10:49:30.184Z,65.46
2023-05-04T10:52:13.457Z,65.50
2023-05-04T10:54:44.089Z,65.46
2023-05-04T10:57:13.579Z,65.22
2023-05-04T10:59:42.367Z,65.26
2023-05-04T11:02:10.353Z,65.07
2023-05-04T11:04:39.072Z,65.03
2023-05-04T11:07:08.662Z,65.03
2023-05-04T11:09:38.014Z,64.84
2023-05-04T11:12:10.361Z,64.73
2023-05-04T11:14:42.371Z,64.70
2023-05-04T11:17:26.778Z,64.58
2023-05-04T11:19:56.612Z,64.53
2023-05-04T11:22:24.844Z,64.30
2023-05-04T11:24:54.260Z,64.25
2023-05-04T11:27:26.356Z,64.12
2023-05-04T11:29:57.998Z,63.98
2023-05-04T11:32:36.807Z,64.01
2023-05-04T11:35:08.472Z,63.83
2023-05-04T11:37:41.350Z,63.79
2023-05-04T11:40:11.149Z,63.58
2023-05-04T11:42:41.105Z,63.70
2023-05-04T11:45:12.753Z,63.55
2023-05-04T11:47:41.595Z,63.61
2023-05-04T11:50:11.492Z,63.20
2023-05-04T11:52:40.857Z,63.24
2023-05-04T11:55:10.616Z,62.97
2023-05-04T11:57:40.344Z,63.04
2023-05-04T12:00:10.296Z,62.83
2023-05-04T12:02:38.249Z,62.72
2023-05-04T12:05:13.729Z,62.81
2023-05-04T12:07:41.627Z,62.63
2023-05-04T12:10:10.215Z,62.59
2023-05-04T12:12:38.071Z,62.41
2023-05-04T12:15:08.498Z,62.26
2023-05-04T12:17:43.000Z,62.23
2023-05-04T12:20:11.637Z,62.00
2023-05-04T12:22:39.507Z,61.97
2023-05-04T12:25:09.306Z,62.03
2023-05-04T12:27:42.623Z,61.48
2023-05-04T12:30:13.254Z,61.37
2023-05-04T12:32:41.302Z,61.33
2023-05-04T12:35:09.895Z,61.43
2023-05-04T12:37:37.999Z,61.31
2023-05-04T12:40:21.128Z,61.32
2023-05-04T12:42:55.532Z,61.09
2023-05-04T12:45:24.946Z,60.84
2023-05-04T12:47:52.852Z,60.80
2023-05-04T12:50:20.660Z,60.59
2023-05-04T12:52:48.481Z,60.54
2023-05-04T12:55:16.291Z,60.58
2023-05-04T12:57:44.934Z,60.57
2023-05-04T13:00:13.920Z,60.12
2023-05-04T13:02:44.361Z,60.28
2023-05-04T13:05:12.971Z,59.85
2023-05-04T13:07:40.816Z,59.88
2023-05-04T13:10:09.454Z,59.98
2023-05-04T13:12:38.830Z,59.67
2023-05-04T13:15:08.125Z,59.61
2023-05-04T13:17:36.845Z,59.34
2023-05-04T13:20:07.335Z,59.29
2023-05-04T13:22:35.676Z,59.29
2023-05-04T13:25:03.506Z,59.30
2023-05-04T13:27:32.705Z,58.92
2023-05-04T13:30:02.007Z,58.96
2023-05-04T13:32:29.968Z,58.74
2023-05-04T13:34:57.886Z,58.50
2023-05-04T13:37:27.803Z,58.86
2023-05-04T13:39:56.309Z,58.41
2023-05-04T13:42:24.207Z,58.57
2023-05-04T13:44:52.004Z,58.18
2023-05-04T13:47:19.998Z,58.06
2023-05-04T13:49:49.055Z,58.42
2023-05-04T13:52:16.873Z,58.24
2023-05-04T13:54:46.079Z,57.57
2023-05-04T13:57:13.880Z,57.56
2023-05-04T13:59:48.802Z,57.89
2023-05-04T14:02:26.720Z,57.35
2023-05-04T14:04:54.556Z,57.49
2023-05-04T14:07:22.419Z,57.77
2023-05-04T14:09:51.578Z,57.46
2023-05-04T14:12:20.472Z,57.37
2023-05-04T14:14:48.301Z,57.17
2023-05-04T14:17:16.074Z,56.95
2023-05-04T14:19:45.362Z,56.94
2023-05-04T14:22:13.177Z,56.85
2023-05-04T14:24:41.098Z,56.72
2023-05-04T14:27:10.263Z,56.68
2023-05-04T14:29:38.088Z,56.18
2023-05-04T14:32:06.015Z,56.36
2023-05-04T14:34:33.889Z,56.36
2023-05-04T14:37:01.797Z,56.09
2023-05-04T14:39:29.632Z,56.04
2023-05-04T14:41:57.966Z,55.99
2023-05-04T14:44:28.714Z,55.87
2023-05-04T14:46:56.779Z,55.74
2023-05-04T14:49:36.662Z,55.64
2023-05-04T14:52:05.600Z,55.49
2023-05-04T14:54:33.403Z,55.35
2023-05-04T14:57:01.255Z,55.20
2023-05-04T14:59:30.479Z,55.31
2023-05-04T15:01:58.353Z,55.02
2023-05-04T15:04:26.349Z,55.04
2023-05-04T15:06:54.173Z,54.80
2023-05-04T15:09:21.944Z,54.79
2023-05-04T15:11:49.870Z,54.61
2023-05-04T15:14:17.677Z,54.48
2023-05-04T15:16:46.838Z,54.49
2023-05-04T15:19:14.640Z,54.20
2023-05-04T15:21:42.623Z,54.23
2023-05-04T15:24:10.425Z,54.09
2023-05-04T15:26:38.227Z,54.12
2023-05-04T15:29:06.743Z,53.84
2023-05-04T15:31:34.668Z,53.66
2023-05-04T15:34:03.890Z,53.70
2023-05-04T15:36:31.831Z,53.54
2023-05-04T15:38:59.721Z,53.41
2023-05-04T15:41:27.813Z,53.37
2023-05-04T15:43:55.738Z,53.22
2023-05-04T15:46:23.602Z,53.12
2023-05-04T15:48:51.441Z,52.92
2023-05-04T15:51:20.982Z,52.66
2023-05-04T15:53:48.823Z,52.82
2023-05-04T15:56:16.784Z,52.96
2023-05-04T15:58:45.139Z,52.63
2023-05-04T16:01:14.431Z,52.52
2023-05-04T16:03:43.001Z,52.40
2023-05-04T16:06:11.828Z,52.40
2023-05-04T16:08:41.059Z,52.33
2023-05-04T16:11:09.186Z,52.24
2023-05-04T16:13:36.994Z,51.89
2023-05-04T16:16:06.272Z,52.22
2023-05-04T16:18:34.127Z,51.70
2023-05-04T16:21:02.101Z,51.54
2023-05-04T16:23:29.933Z,51.74
2023-05-04T16:25:59.155Z,51.38
2023-05-04T16:28:27.148Z,51.31
2023-05-04T16:30:55.145Z,51.50
2023-05-04T16:33:24.864Z,51.32
2023-05-04T16:35:52.738Z,51.45
2023-05-04T16:38:20.617Z,51.27
2023-05-04T16:40:48.655Z,51.42
2023-05-04T16:43:18.068Z,50.84
2023-05-04T16:45:46.064Z,51.17
2023-05-04T16:48:14.010Z,50.89
2023-05-04T16:50:41.904Z,51.20
2023-05-04T16:53:09.999Z,51.02
2023-05-04T16:55:38.074Z,50.82
2023-05-04T16:58:06.115Z,50.73
2023-05-04T17:00:35.842Z,50.72
2023-05-04T17:03:03.824Z,50.84
2023-05-04T17:05:31.817Z,50.60
2023-05-04T17:07:59.824Z,50.71
2023-05-04T17:10:27.820Z,50.55
2023-05-04T17:12:55.983Z,50.70
2023-05-04T17:15:23.925Z,50.51
2023-05-04T17:17:53.184Z,50.54
2023-05-04T17:20:21.797Z,50.41
2023-05-04T17:22:51.438Z,50.44
2023-05-04T17:25:19.594Z,50.26
2023-05-04T17:27:47.467Z,50.38
2023-05-04T17:30:15.770Z,50.31
2023-05-04T17:32:43.676Z,50.22
2023-05-04T17:35:24.420Z,50.23
2023-05-04T17:37:56.759Z,50.12
2023-05-04T17:40:26.153Z,50.21
2023-05-04T17:42:54.115Z,50.21
2023-05-04T17:45:21.965Z,50.15
2023-05-04T17:50:21.359Z,50.05
2023-05-04T17:52:52.719Z,49.99
2023-05-04T17:55:20.688Z,50.00
2023-05-04T17:57:48.512Z,50.04
2023-05-04T18:00:17.084Z,50.01
2023-05-04T18:02:44.993Z,49.87
2023-05-04T18:05:13.001Z,49.99
2023-05-04T18:07:42.184Z,50.01
2023-05-04T18:10:10.767Z,49.83
2023-05-04T18:12:38.955Z,49.91
2023-05-04T18:15:09.073Z,50.00
2023-05-04T18:17:38.133Z,50.02
2023-05-04T18:20:08.186Z,49.83
2023-05-04T18:22:36.680Z,49.74
2023-05-04T18:25:06.882Z,49.80
2023-05-04T18:27:35.543Z,49.89
2023-05-04T18:30:05.041Z,49.78
2023-05-04T18:32:33.058Z,49.92
2023-05-04T18:35:01.455Z,49.84
2023-05-04T18:37:30.607Z,49.62
2023-05-04T18:39:58.634Z,49.75
2023-05-04T18:42:28.191Z,49.64
2023-05-04T18:44:56.677Z,49.74
2023-05-04T18:47:24.536Z,49.70
2023-05-04T18:49:53.166Z,49.76
2023-05-04T18:52:21.836Z,49.77
2023-05-04T18:54:49.903Z,49.69
2023-05-04T18:57:17.766Z,49.58
2023-05-04T18:59:46.957Z,49.78
2023-05-04T19:02:14.728Z,49.67
2023-05-04T19:04:42.846Z,49.70
2023-05-04T19:07:10.738Z,49.68
2023-05-04T19:09:38.594Z,49.41
2023-05-04T19:12:07.027Z,49.59
2023-05-04T19:14:34.821Z,49.78
2023-05-04T19:17:04.898Z,49.62
2023-05-04T19:19:36.335Z,49.75
2023-05-04T19:22:04.322Z,49.76
2023-05-04T19:24:34.294Z,49.54
2023-05-04T19:27:02.081Z,49.62
2023-05-04T19:29:29.922Z,49.75
2023-05-04T19:31:59.560Z,49.64
2023-05-04T19:34:30.600Z,49.73
2023-05-04T19:36:59.232Z,49.68
2023-05-04T19:39:27.114Z,49.69
2023-05-04T19:41:54.940Z,49.83
2023-05-04T19:44:22.749Z,49.73
2023-05-04T19:46:51.545Z,49.72
2023-05-04T19:49:21.815Z,49.87
2023-05-04T19:51:50.982Z,49.87
2023-05-04T19:54:19.046Z,49.94
2023-05-04T19:56:46.936Z,49.85
2023-05-04T19:59:14.791Z,49.77
2023-05-04T20:01:42.586Z,49.89
2023-05-04T20:04:10.456Z,49.82
2023-05-04T20:06:38.249Z,50.08
2023-05-04T20:09:07.551Z,50.07
2023-05-04T20:11:35.942Z,50.04
2023-05-04T20:14:03.809Z,50.10
2023-05-04T20:16:31.641Z,50.15
2023-05-04T20:19:01.916Z,49.95
2023-05-04T20:21:32.170Z,49.97
2023-05-04T20:24:00.044Z,50.23
2023-05-04T20:26:29.289Z,50.22
2023-05-04T20:28:57.196Z,50.24
2023-05-04T20:31:25.060Z,50.11
2023-05-04T20:33:52.986Z,50.44
2023-05-04T20:36:20.844Z,50.24
2023-05-04T20:38:48.732Z,50.24
2023-05-04T20:41:16.761Z,50.25
2023-05-04T20:43:45.945Z,50.36
2023-05-04T20:46:13.945Z,50.50
2023-05-04T20:48:42.263Z,50.28
2023-05-04T20:51:14.514Z,50.52
2023-05-04T20:53:42.820Z,50.42
2023-05-04T20:56:10.837Z,50.52
2023-05-04T20:58:38.659Z,50.52
2023-05-04T21:01:07.946Z,50.66
2023-05-04T21:03:36.293Z,50.70
2023-05-04T21:06:05.004Z,50.83
2023-05-04T21:08:32.920Z,50.56
2023-05-04T21:11:01.150Z,50.76
2023-05-04T21:13:28.928Z,51.00
2023-05-04T21:15:56.781Z,50.97
2023-05-04T21:18:26.165Z,50.92
2023-05-04T21:20:54.016Z,51.02
2023-05-04T21:23:21.866Z,50.92
2023-05-04T21:25:49.652Z,50.85
2023-05-04T21:28:17.425Z,50.89
2023-05-04T21:30:45.230Z,50.85
2023-05-04T21:33:13.089Z,51.20
2023-05-04T21:35:42.204Z,51.29
2023-05-04T21:38:09.986Z,51.17
2023-05-04T21:40:37.769Z,51.50
2023-05-04T21:43:05.599Z,51.00
2023-05-04T21:45:33.643Z,51.28
2023-05-04T21:48:03.717Z,51.22
2023-05-04T21:50:31.556Z,51.10
2023-05-04T21:53:00.780Z,51.41
2023-05-04T21:55:30.346Z,51.35
2023-05-04T21:57:58.331Z,51.70
2023-05-04T22:00:26.640Z,51.64
2023-05-04T22:06:37.767Z,51.35
2023-05-04T22:09:05.744Z,51.76
2023-05-04T22:11:33.606Z,51.32
2023-05-04T22:14:01.402Z,51.84
2023-05-04T22:16:29.241Z,51.93
2023-05-04T22:18:57.185Z,51.54
2023-05-04T22:21:24.989Z,51.65
2023-05-04T22:23:54.233Z,51.95
2023-05-04T22:26:22.170Z,51.96
2023-05-04T22:28:49.999Z,52.19
2023-05-04T22:31:17.833Z,51.76
2023-05-04T22:33:45.792Z,51.66
2023-05-04T22:36:13.768Z,51.83
2023-05-04T22:38:41.582Z,51.98
2023-05-04T22:41:10.714Z,52.18
2023-05-04T22:43:38.492Z,52.33
2023-05-04T22:46:06.388Z,51.94
2023-05-04T22:48:34.338Z,52.31
2023-05-04T22:51:02.192Z,52.21
2023-05-04T22:53:30.014Z,52.17
2023-05-04T22:55:57.808Z,51.94
2023-05-04T22:58:26.985Z,52.49
2023-05-04T23:00:54.814Z,52.27
2023-05-04T23:03:22.738Z,52.33
2023-05-04T23:05:50.669Z,52.24
2023-05-04T23:08:19.105Z,52.13
2023-05-04T23:10:46.879Z,52.52
2023-05-04T23:13:14.759Z,52.24
2023-05-04T23:15:44.062Z,52.31
2023-05-04T23:18:12.273Z,52.60
2023-05-04T23:20:40.065Z,52.61
2023-05-04T23:23:07.867Z,52.47
2023-05-04T23:25:35.878Z,52.44
2023-05-04T23:28:03.675Z,52.74
2023-05-04T23:30:31.722Z,52.62
2023-05-04T23:33:00.920Z,52.93
2023-05-04T23:35:28.705Z,52.67
2023-05-04T23:37:56.811Z,52.63
2023-05-04T23:40:24.619Z,52.83
2023-05-04T23:42:52.563Z,52.90
2023-05-04T23:45:20.613Z,52.97
2023-05-04T23:47:48.589Z,53.02
2023-05-04T23:50:18.096Z,52.95
2023-05-04T23:52:46.005Z,53.07
2023-05-04T23:55:14.346Z,52.87
2023-05-04T23:57:44.350Z,52.93
